createdAt,value
2018-09-26T00:00:20.478Z,3.80
2018-09-26T00:02:53.659Z,3.81
2018-09-26T00:05:22.287Z,3.82
2018-09-26T00:07:50.949Z,3.81
2018-09-26T00:10:19.715Z,3.77
2018-09-26T00:12:48.211Z,3.73
2018-09-26T00:15:17.020Z,3.68
2018-09-26T00:17:45.797Z,3.63
2018-09-26T00:20:14.808Z,3.61
2018-09-26T00:22:43.460Z,3.55
2018-09-26T00:25:12.561Z,3.52
2018-09-26T00:27:41.077Z,3.47
2018-09-26T00:30:09.660Z,3.36
2018-09-26T00:32:38.619Z,3.37
2018-09-26T00:35:07.992Z,3.32
2018-09-26T00:37:36.596Z,3.29
2018-09-26T00:40:05.985Z,3.26
2018-09-26T00:42:34.656Z,3.24
2018-09-26T00:45:03.281Z,3.25
2018-09-26T00:47:32.013Z,3.24
2018-09-26T00:50:00.514Z,3.24
2018-09-26T00:52:29.134Z,3.24
2018-09-26T00:54:57.868Z,3.25
2018-09-26T00:57:26.490Z,3.24
2018-09-26T00:59:55.209Z,3.22
2018-09-26T01:02:24.057Z,3.21
2018-09-26T01:04:52.658Z,3.23
2018-09-26T01:07:21.272Z,3.23
2018-09-26T01:09:50.226Z,3.23
2018-09-26T01:12:18.757Z,3.24
2018-09-26T01:14:47.484Z,3.25
2018-09-26T01:17:16.396Z,3.24
2018-09-26T01:19:44.938Z,3.23
2018-09-26T01:22:13.699Z,3.20
2018-09-26T01:24:43.026Z,3.19
2018-09-26T01:27:12.221Z,3.19
2018-09-26T01:29:40.880Z,3.15
2018-09-26T01:32:09.564Z,3.11
2018-09-26T01:34:39.225Z,3.10
2018-09-26T01:37:07.819Z,3.07
2018-09-26T01:39:36.484Z,3.04
2018-09-26T01:42:05.094Z,3.00
2018-09-26T01:44:33.667Z,2.96
2018-09-26T01:47:02.524Z,2.91
2018-09-26T01:49:31.050Z,2.87
2018-09-26T01:51:59.645Z,2.81
2018-09-26T01:54:28.285Z,2.78
2018-09-26T01:56:56.806Z,2.71
2018-09-26T01:59:25.402Z,2.61
2018-09-26T02:01:54.082Z,2.56
2018-09-26T02:04:22.759Z,2.49
2018-09-26T02:06:51.386Z,2.47
2018-09-26T02:09:20.140Z,2.55
2018-09-26T02:11:49.010Z,2.55
2018-09-26T02:14:17.487Z,2.55
2018-09-26T02:16:46.196Z,2.54
2018-09-26T02:19:15.799Z,2.51
2018-09-26T02:21:44.375Z,2.56
2018-09-26T02:24:12.925Z,2.53
2018-09-26T02:26:41.548Z,2.42
2018-09-26T02:29:10.078Z,2.36
2018-09-26T02:31:38.696Z,2.36
2018-09-26T02:34:07.294Z,2.35
2018-09-26T02:36:35.863Z,2.32
2018-09-26T02:39:06.036Z,2.34
2018-09-26T02:41:34.654Z,2.23
2018-09-26T02:44:03.200Z,2.22
2018-09-26T02:46:31.800Z,2.17
2018-09-26T02:49:07.645Z,2.11
2018-09-26T02:51:37.764Z,2.12
2018-09-26T02:54:07.280Z,2.07
2018-09-26T02:56:36.133Z,2.07
2018-09-26T02:59:06.380Z,2.02
2018-09-26T03:01:34.981Z,2.03
2018-09-26T03:04:03.546Z,2.05
2018-09-26T03:06:32.799Z,2.03
2018-09-26T03:09:02.042Z,1.99
2018-09-26T03:11:30.652Z,1.94
2018-09-26T03:13:59.227Z,1.90
2018-09-26T03:16:27.777Z,1.89
2018-09-26T03:18:58.039Z,1.93
2018-09-26T03:21:27.270Z,1.92
2018-09-26T03:23:56.948Z,1.93
2018-09-26T03:26:25.994Z,1.92
2018-09-26T03:28:55.413Z,1.90
2018-09-26T03:31:24.684Z,1.91
2018-09-26T03:33:53.882Z,1.91
2018-09-26T03:36:22.468Z,1.91
2018-09-26T03:38:52.909Z,1.88
2018-09-26T03:41:24.172Z,1.83
2018-09-26T03:43:53.470Z,1.80
2018-09-26T03:46:22.706Z,1.81
2018-09-26T03:48:52.208Z,1.71
2018-09-26T03:51:21.443Z,1.71
2018-09-26T03:53:51.308Z,1.75
2018-09-26T03:56:20.712Z,1.73
2018-09-26T03:58:50.077Z,1.74
2018-09-26T04:01:19.432Z,1.75
2018-09-26T04:03:48.823Z,1.69
2018-09-26T04:06:18.169Z,1.71
2018-09-26T04:08:47.672Z,1.72
2018-09-26T04:11:16.477Z,1.77
2018-09-26T04:13:46.760Z,1.79
2018-09-26T04:16:15.279Z,1.80
2018-09-26T04:18:45.761Z,1.87
2018-09-26T04:21:14.276Z,1.86
2018-09-26T04:23:42.938Z,1.72
2018-09-26T04:26:12.571Z,1.59
2018-09-26T04:28:42.159Z,1.52
2018-09-26T04:31:10.742Z,1.59
2018-09-26T04:33:39.631Z,1.54
2018-09-26T04:36:08.253Z,1.48
2018-09-26T04:38:37.179Z,1.49
2018-09-26T04:41:06.226Z,1.53
2018-09-26T04:43:34.813Z,1.55
2018-09-26T04:46:03.961Z,1.56
2018-09-26T04:48:32.652Z,1.62
2018-09-26T04:51:02.505Z,1.62
2018-09-26T04:53:31.125Z,1.59
2018-09-26T04:55:59.942Z,1.58
2018-09-26T04:58:29.556Z,1.53
2018-09-26T05:00:58.238Z,1.54
2018-09-26T05:03:26.872Z,1.60
2018-09-26T05:05:55.567Z,1.56
2018-09-26T05:08:24.251Z,1.57
2018-09-26T05:10:53.416Z,1.56
2018-09-26T05:13:22.223Z,1.57
2018-09-26T05:18:26.430Z,1.99
2018-09-26T05:20:54.987Z,2.14
2018-09-26T05:23:23.601Z,2.33
2018-09-26T05:25:52.218Z,2.51
2018-09-26T05:28:20.787Z,2.59
2018-09-26T05:30:49.352Z,2.54
2018-09-26T05:33:19.953Z,2.47
2018-09-26T05:35:48.458Z,2.45
2018-09-26T05:38:18.978Z,2.46
2018-09-26T05:40:47.553Z,2.48
2018-09-26T05:43:16.208Z,2.54
2018-09-26T05:45:44.733Z,2.59
2018-09-26T05:48:13.409Z,2.66
2018-09-26T05:50:42.095Z,2.72
2018-09-26T05:53:10.817Z,2.80
2018-09-26T05:55:40.541Z,2.87
2018-09-26T05:58:09.310Z,2.96
2018-09-26T06:00:37.881Z,3.03
2018-09-26T06:03:06.488Z,3.13
2018-09-26T06:05:35.123Z,3.23
2018-09-26T06:08:03.680Z,3.31
2018-09-26T06:10:32.254Z,3.40
2018-09-26T06:13:00.884Z,3.47
2018-09-26T06:15:29.623Z,3.56
2018-09-26T06:17:58.386Z,3.66
2018-09-26T06:20:26.982Z,3.76
2018-09-26T06:22:55.594Z,3.90
2018-09-26T06:25:24.337Z,4.00
2018-09-26T06:27:53.069Z,4.12
2018-09-26T06:30:21.633Z,4.23
2018-09-26T06:32:50.243Z,4.31
2018-09-26T06:35:18.838Z,4.37
2018-09-26T06:37:47.412Z,4.48
2018-09-26T06:40:16.067Z,4.62
2018-09-26T06:42:44.598Z,4.71
2018-09-26T06:45:13.228Z,4.81
2018-09-26T06:47:41.821Z,4.89
2018-09-26T06:50:10.390Z,4.98
2018-09-26T06:52:39.112Z,5.05
2018-09-26T06:55:07.706Z,5.12
2018-09-26T06:57:37.168Z,5.22
2018-09-26T07:00:06.091Z,5.33
2018-09-26T07:02:35.183Z,5.40
2018-09-26T07:05:03.802Z,5.43
2018-09-26T07:07:32.523Z,5.52
2018-09-26T07:10:01.142Z,5.61
2018-09-26T07:12:29.764Z,5.71
2018-09-26T07:14:58.386Z,5.77
2018-09-26T07:17:27.955Z,5.85
2018-09-26T07:19:56.914Z,5.92
2018-09-26T07:22:25.623Z,6.03
2018-09-26T07:24:55.305Z,6.21
2018-09-26T07:27:27.844Z,6.34
2018-09-26T07:29:56.422Z,6.41
2018-09-26T07:32:25.001Z,6.47
2018-09-26T07:34:53.617Z,6.61
2018-09-26T07:37:22.176Z,6.71
2018-09-26T07:39:50.858Z,6.85
2018-09-26T07:42:20.449Z,6.95
2018-09-26T07:44:49.008Z,7.07
2018-09-26T07:47:17.564Z,7.20
2018-09-26T07:49:46.062Z,7.39
2018-09-26T07:52:14.636Z,7.60
2018-09-26T07:54:43.127Z,7.68
2018-09-26T07:57:11.644Z,7.86
2018-09-26T07:59:40.725Z,8.04
2018-09-26T08:02:09.466Z,8.18
2018-09-26T08:04:38.084Z,8.28
2018-09-26T08:07:06.709Z,8.43
2018-09-26T08:09:35.275Z,8.57
2018-09-26T08:12:03.780Z,8.69
2018-09-26T08:14:32.305Z,8.80
2018-09-26T08:17:00.965Z,9.00
2018-09-26T08:19:30.585Z,9.17
2018-09-26T08:21:59.214Z,9.28
2018-09-26T08:24:27.867Z,9.40
2018-09-26T08:26:56.465Z,9.52
2018-09-26T08:29:25.094Z,9.68
2018-09-26T08:31:53.641Z,9.86
2018-09-26T08:34:22.244Z,9.98
2018-09-26T08:36:51.270Z,10.13
2018-09-26T08:39:19.873Z,10.30
2018-09-26T08:41:48.462Z,10.50
2018-09-26T08:44:17.140Z,10.69
2018-09-26T08:46:45.637Z,10.88
2018-09-26T08:49:14.275Z,11.08
2018-09-26T08:51:42.886Z,11.26
2018-09-26T08:54:11.768Z,11.47
2018-09-26T08:56:40.336Z,11.62
2018-09-26T08:59:08.990Z,11.75
2018-09-26T09:01:43.304Z,11.90
2018-09-26T09:04:11.955Z,12.10
2018-09-26T09:06:40.714Z,12.22
2018-09-26T09:09:10.234Z,12.31
2018-09-26T09:11:39.255Z,12.43
2018-09-26T09:14:08.073Z,12.50
2018-09-26T09:16:36.741Z,12.39
2018-09-26T09:19:07.009Z,12.38
2018-09-26T09:21:35.515Z,12.46
2018-09-26T09:24:04.398Z,12.60
2018-09-26T09:26:32.915Z,12.74
2018-09-26T09:29:01.605Z,12.83
2018-09-26T09:31:30.224Z,12.83
2018-09-26T09:33:58.790Z,12.91
2018-09-26T09:36:27.564Z,12.87
2018-09-26T09:38:56.016Z,12.86
2018-09-26T09:41:24.611Z,12.86
2018-09-26T09:43:53.264Z,12.91
2018-09-26T09:46:21.833Z,13.02
2018-09-26T09:48:50.633Z,13.01
2018-09-26T09:51:19.217Z,13.17
2018-09-26T09:53:47.912Z,13.27
2018-09-26T09:56:16.576Z,13.49
2018-09-26T09:58:45.077Z,13.67
2018-09-26T10:01:18.828Z,13.54
2018-09-26T10:03:47.355Z,13.46
2018-09-26T10:06:16.019Z,13.44
2018-09-26T10:08:44.630Z,13.44
2018-09-26T10:11:16.296Z,13.44
2018-09-26T10:13:45.938Z,13.67
2018-09-26T10:16:14.528Z,13.74
2018-09-26T10:18:43.788Z,13.81
2018-09-26T10:21:12.564Z,14.07
2018-09-26T10:23:41.148Z,14.20
2018-09-26T10:26:10.958Z,14.07
2018-09-26T10:28:39.736Z,14.05
2018-09-26T10:31:08.240Z,13.96
2018-09-26T10:33:37.731Z,13.95
2018-09-26T10:36:06.402Z,13.84
2018-09-26T10:38:35.062Z,13.96
2018-09-26T10:41:04.476Z,14.07
2018-09-26T10:43:33.077Z,14.11
2018-09-26T10:46:01.578Z,14.20
2018-09-26T10:48:30.280Z,14.30
2018-09-26T10:50:58.864Z,14.43
2018-09-26T10:53:27.396Z,14.63
2018-09-26T10:55:56.428Z,14.59
2018-09-26T10:58:25.140Z,14.63
2018-09-26T11:00:53.819Z,14.69
2018-09-26T11:03:23.579Z,14.79
2018-09-26T11:05:52.135Z,15.10
2018-09-26T11:08:20.941Z,15.31
2018-09-26T11:10:49.440Z,15.61
2018-09-26T11:13:17.946Z,15.86
2018-09-26T11:15:46.532Z,16.09
2018-09-26T11:18:16.048Z,16.53
2018-09-26T11:20:44.722Z,16.32
2018-09-26T11:23:13.317Z,16.24
2018-09-26T11:25:41.925Z,16.42
2018-09-26T11:28:10.652Z,16.69
2018-09-26T11:30:39.136Z,16.67
2018-09-26T11:33:07.826Z,16.89
2018-09-26T11:35:36.474Z,17.01
2018-09-26T11:38:05.018Z,17.11
2018-09-26T11:40:33.532Z,17.68
2018-09-26T11:43:02.158Z,18.11
2018-09-26T11:45:30.725Z,18.94
2018-09-26T11:47:59.437Z,18.69
2018-09-26T11:50:28.494Z,18.66
2018-09-26T11:52:57.080Z,18.25
2018-09-26T11:55:25.689Z,18.50
2018-09-26T11:57:54.249Z,18.89
2018-09-26T12:00:22.884Z,18.85
2018-09-26T12:02:52.557Z,18.95
2018-09-26T12:05:21.234Z,19.34
2018-09-26T12:07:49.873Z,19.18
2018-09-26T12:10:18.572Z,19.04
2018-09-26T12:12:47.218Z,19.07
2018-09-26T12:15:15.776Z,19.44
2018-09-26T12:17:44.305Z,19.99
2018-09-26T12:20:15.150Z,20.08
2018-09-26T12:22:43.865Z,20.02
2018-09-26T12:25:12.628Z,20.07
2018-09-26T12:27:41.165Z,19.91
2018-09-26T12:30:10.140Z,19.25
2018-09-26T12:32:39.994Z,18.47
2018-09-26T12:35:09.133Z,17.93
2018-09-26T12:37:38.330Z,17.82
2018-09-26T12:40:07.558Z,18.00
2018-09-26T12:42:36.327Z,18.21
2018-09-26T12:45:05.856Z,18.23
2018-09-26T12:47:35.609Z,18.28
2018-09-26T12:50:06.049Z,18.55
2018-09-26T12:52:34.776Z,18.90
2018-09-26T12:55:03.590Z,18.92
2018-09-26T12:57:32.799Z,18.51
2018-09-26T13:00:01.322Z,18.47
2018-09-26T13:02:29.875Z,18.46
2018-09-26T13:04:58.517Z,18.49
2018-09-26T13:07:27.199Z,18.65
2018-09-26T13:09:55.752Z,18.86
2018-09-26T13:12:24.392Z,18.78
2018-09-26T13:14:52.893Z,18.63
2018-09-26T13:17:21.484Z,18.22
2018-09-26T13:19:51.422Z,17.43
2018-09-26T13:22:20.176Z,17.05
2018-09-26T13:24:48.784Z,16.77
2018-09-26T13:27:17.964Z,16.37
2018-09-26T13:29:46.848Z,16.01
2018-09-26T13:32:15.523Z,15.94
2018-09-26T13:34:44.629Z,15.86
2018-09-26T13:37:13.694Z,15.78
2018-09-26T13:39:44.546Z,15.75
2018-09-26T13:42:13.512Z,15.78
2018-09-26T13:44:42.321Z,15.71
2018-09-26T13:47:10.898Z,15.62
2018-09-26T13:49:39.777Z,15.65
2018-09-26T13:52:08.410Z,15.69
2018-09-26T13:54:37.027Z,15.80
2018-09-26T13:57:05.662Z,15.94
2018-09-26T13:59:34.455Z,15.93
2018-09-26T14:02:03.123Z,15.97
2018-09-26T14:04:32.710Z,15.92
2018-09-26T14:07:01.186Z,15.89
2018-09-26T14:09:29.708Z,15.77
2018-09-26T14:11:58.478Z,15.66
2018-09-26T14:14:27.057Z,15.59
2018-09-26T14:16:55.697Z,15.57
2018-09-26T14:19:24.548Z,15.52
2018-09-26T14:21:54.269Z,15.45
2018-09-26T14:24:23.053Z,15.43
2018-09-26T14:26:51.848Z,15.41
2018-09-26T14:29:20.499Z,15.37
2018-09-26T14:31:49.167Z,15.28
2018-09-26T14:34:17.847Z,15.18
2018-09-26T14:36:47.160Z,15.10
2018-09-26T14:39:15.763Z,15.07
2018-09-26T14:41:44.735Z,15.01
2018-09-26T14:44:13.787Z,15.00
2018-09-26T14:46:42.376Z,15.00
2018-09-26T14:49:11.201Z,15.00
2018-09-26T14:51:39.906Z,14.98
2018-09-26T14:54:08.505Z,14.97
2018-09-26T14:56:37.358Z,14.98
2018-09-26T14:59:06.202Z,14.96
2018-09-26T15:01:34.776Z,14.95
2018-09-26T15:04:03.965Z,14.95
2018-09-26T15:06:32.802Z,14.96
2018-09-26T15:09:01.385Z,14.97
2018-09-26T15:11:30.016Z,14.94
2018-09-26T15:13:58.621Z,14.92
2018-09-26T15:16:27.316Z,14.86
2018-09-26T15:18:56.527Z,14.81
2018-09-26T15:21:25.287Z,14.76
2018-09-26T15:23:54.834Z,14.71
2018-09-26T15:26:23.747Z,14.67
2018-09-26T15:28:52.410Z,14.63
2018-09-26T15:31:20.962Z,14.60
2018-09-26T15:33:49.771Z,14.59
2018-09-26T15:36:18.458Z,14.57
2018-09-26T15:38:47.051Z,14.54
2018-09-26T15:41:16.678Z,14.49
2018-09-26T15:43:45.261Z,14.45
2018-09-26T15:46:14.266Z,14.41
2018-09-26T15:48:42.833Z,14.37
2018-09-26T15:51:11.473Z,14.33
2018-09-26T15:53:40.126Z,14.29
2018-09-26T15:56:08.785Z,14.25
2018-09-26T15:58:37.627Z,14.20
2018-09-26T16:01:06.343Z,14.17
2018-09-26T16:03:35.198Z,14.11
2018-09-26T16:06:03.822Z,14.05
2018-09-26T16:08:32.462Z,14.00
2018-09-26T16:11:01.312Z,13.95
2018-09-26T16:13:30.021Z,13.90
2018-09-26T16:15:58.622Z,13.84
2018-09-26T16:18:27.169Z,13.78
2018-09-26T16:20:55.676Z,13.73
2018-09-26T16:23:24.337Z,13.65
2018-09-26T16:25:53.100Z,13.57
2018-09-26T16:28:21.896Z,13.50
2018-09-26T16:30:50.524Z,13.41
2018-09-26T16:33:19.071Z,13.33
2018-09-26T16:35:48.675Z,13.24
2018-09-26T16:38:17.514Z,13.16
2018-09-26T16:40:45.974Z,13.09
2018-09-26T16:43:14.645Z,13.02
2018-09-26T16:45:43.225Z,12.97
2018-09-26T16:48:11.949Z,12.92
2018-09-26T16:50:40.618Z,12.88
2018-09-26T16:53:09.497Z,12.81
2018-09-26T16:55:38.473Z,12.77
2018-09-26T16:58:09.231Z,12.72
2018-09-26T17:00:38.748Z,12.66
2018-09-26T17:03:07.573Z,12.62
2018-09-26T17:05:36.256Z,12.58
2018-09-26T17:08:04.911Z,12.54
2018-09-26T17:10:33.698Z,12.50
2018-09-26T17:13:02.240Z,12.46
2018-09-26T17:15:30.795Z,12.44
2018-09-26T17:17:59.443Z,12.43
2018-09-26T17:20:28.341Z,12.42
2018-09-26T17:22:56.843Z,12.43
2018-09-26T17:25:26.141Z,12.41
2018-09-26T17:27:54.609Z,12.42
2018-09-26T17:30:23.240Z,12.43
2018-09-26T17:32:52.024Z,12.45
2018-09-26T17:35:21.253Z,12.46
2018-09-26T17:37:50.236Z,12.48
2018-09-26T17:40:19.054Z,12.49
2018-09-26T17:42:47.704Z,12.44
2018-09-26T17:45:16.311Z,12.37
2018-09-26T17:47:45.069Z,12.31
2018-09-26T17:50:13.692Z,12.26
2018-09-26T17:52:42.382Z,12.22
2018-09-26T17:55:11.143Z,12.20
2018-09-26T17:57:39.709Z,12.20
2018-09-26T18:00:08.488Z,12.18
2018-09-26T18:02:37.041Z,12.17
2018-09-26T18:05:05.820Z,12.14
2018-09-26T18:07:34.577Z,12.13
2018-09-26T18:10:03.276Z,12.09
2018-09-26T18:12:32.002Z,12.06
2018-09-26T18:15:01.316Z,12.02
2018-09-26T18:17:30.162Z,11.97
2018-09-26T18:19:58.846Z,11.92
2018-09-26T18:22:32.055Z,11.87
2018-09-26T18:25:00.694Z,11.83
2018-09-26T18:27:29.306Z,11.80
2018-09-26T18:29:58.905Z,11.75
2018-09-26T18:32:27.439Z,11.73
2018-09-26T18:34:56.233Z,11.69
2018-09-26T18:37:26.048Z,11.65
2018-09-26T18:39:54.709Z,11.60
2018-09-26T18:42:23.249Z,11.54
2018-09-26T18:44:52.128Z,11.47
2018-09-26T18:47:20.730Z,11.40
2018-09-26T18:49:49.337Z,11.34
2018-09-26T18:52:17.890Z,11.28
2018-09-26T18:54:46.601Z,11.25
2018-09-26T18:57:15.652Z,11.20
2018-09-26T18:59:44.197Z,11.19
2018-09-26T19:02:12.884Z,11.16
2018-09-26T19:04:41.577Z,11.16
2018-09-26T19:07:10.392Z,11.17
2018-09-26T19:09:39.058Z,11.17
2018-09-26T19:12:08.921Z,11.24
2018-09-26T19:14:37.622Z,11.31
2018-09-26T19:17:07.505Z,11.37
2018-09-26T19:19:36.068Z,11.43
2018-09-26T19:22:04.714Z,11.50
2018-09-26T19:24:37.135Z,11.56
2018-09-26T19:27:05.914Z,11.61
2018-09-26T19:29:34.467Z,11.67
2018-09-26T19:32:03.046Z,11.70
2018-09-26T19:34:31.611Z,11.75
2018-09-26T19:37:00.282Z,11.79
2018-09-26T19:39:28.868Z,11.82
2018-09-26T19:41:57.455Z,11.85
2018-09-26T19:44:26.166Z,11.88
2018-09-26T19:46:54.724Z,11.90
2018-09-26T19:49:23.510Z,11.94
2018-09-26T19:51:52.232Z,11.94
2018-09-26T19:54:20.912Z,11.96
2018-09-26T19:56:51.459Z,11.96
2018-09-26T19:59:20.042Z,11.94
2018-09-26T20:01:48.669Z,11.90
2018-09-26T20:04:17.458Z,11.85
2018-09-26T20:06:46.035Z,11.83
2018-09-26T20:09:14.700Z,11.81
2018-09-26T20:11:43.469Z,11.78
2018-09-26T20:14:15.517Z,11.74
2018-09-26T20:16:45.060Z,11.71
2018-09-26T20:19:13.630Z,11.70
2018-09-26T20:21:42.192Z,11.68
2018-09-26T20:24:10.791Z,11.67
2018-09-26T20:26:39.446Z,11.68
2018-09-26T20:29:08.138Z,11.70
2018-09-26T20:31:37.442Z,11.69
2018-09-26T20:34:06.130Z,11.68
2018-09-26T20:36:35.696Z,11.68
2018-09-26T20:39:06.003Z,11.68
2018-09-26T20:41:34.673Z,11.68
2018-09-26T20:44:03.209Z,11.71
2018-09-26T20:46:31.880Z,11.75
2018-09-26T20:49:00.597Z,11.79
2018-09-26T20:51:29.373Z,11.79
2018-09-26T20:53:58.140Z,11.78
2018-09-26T20:56:26.675Z,11.74
2018-09-26T20:58:55.343Z,11.70
2018-09-26T21:01:23.918Z,11.66
2018-09-26T21:03:53.473Z,11.61
2018-09-26T21:06:22.090Z,11.56
2018-09-26T21:08:50.654Z,11.50
2018-09-26T21:11:19.419Z,11.44
2018-09-26T21:13:48.095Z,11.39
2018-09-26T21:16:16.731Z,11.35
2018-09-26T21:18:45.284Z,11.32
2018-09-26T21:21:14.169Z,11.29
2018-09-26T21:23:42.790Z,11.26
2018-09-26T21:26:11.324Z,11.21
2018-09-26T21:28:39.810Z,11.16
2018-09-26T21:31:08.567Z,11.15
2018-09-26T21:33:37.031Z,11.16
2018-09-26T21:36:06.698Z,11.12
2018-09-26T21:38:35.476Z,11.13
2018-09-26T21:41:03.959Z,11.14
2018-09-26T21:43:32.421Z,11.15
2018-09-26T21:46:01.134Z,11.17
2018-09-26T21:48:29.691Z,11.19
2018-09-26T21:50:58.157Z,11.21
2018-09-26T21:53:28.190Z,11.23
2018-09-26T21:55:56.719Z,11.24
2018-09-26T21:58:25.338Z,11.27
2018-09-26T22:00:59.541Z,11.27
2018-09-26T22:03:28.432Z,11.31
2018-09-26T22:05:56.940Z,11.33
2018-09-26T22:08:25.848Z,11.36
2018-09-26T22:10:54.543Z,11.36
2018-09-26T22:13:23.498Z,11.35
2018-09-26T22:15:52.552Z,11.35
2018-09-26T22:18:21.186Z,11.35
2018-09-26T22:20:49.704Z,11.37
2018-09-26T22:23:18.610Z,11.38
2018-09-26T22:25:47.360Z,11.37
2018-09-26T22:28:16.171Z,11.39
2018-09-26T22:30:45.251Z,11.39
2018-09-26T22:33:13.916Z,11.41
2018-09-26T22:35:42.655Z,11.44
2018-09-26T22:38:11.482Z,11.46
2018-09-26T22:40:40.042Z,11.49
2018-09-26T22:43:08.660Z,11.47
2018-09-26T22:45:38.554Z,11.51
2018-09-26T22:48:07.099Z,11.53
2018-09-26T22:50:35.574Z,11.57
2018-09-26T22:53:04.070Z,11.60
2018-09-26T22:55:33.613Z,11.62
2018-09-26T22:58:02.536Z,11.64
2018-09-26T23:00:31.175Z,11.66
2018-09-26T23:02:59.673Z,11.69
2018-09-26T23:05:29.583Z,11.72
2018-09-26T23:07:58.246Z,11.73
2018-09-26T23:10:26.963Z,11.75
2018-09-26T23:12:55.548Z,11.77
2018-09-26T23:15:24.084Z,11.78
2018-09-26T23:17:52.678Z,11.80
2018-09-26T23:20:21.908Z,11.82
2018-09-26T23:22:50.673Z,11.84
2018-09-26T23:25:19.312Z,11.87
2018-09-26T23:27:48.954Z,11.88
2018-09-26T23:30:17.727Z,11.88
2018-09-26T23:32:46.933Z,11.88
2018-09-26T23:35:16.237Z,11.79
2018-09-26T23:37:44.869Z,11.77
2018-09-26T23:40:13.953Z,11.79
2018-09-26T23:42:42.680Z,11.85
2018-09-26T23:45:11.241Z,11.82
2018-09-26T23:47:39.876Z,11.82
2018-09-26T23:50:08.473Z,11.81
2018-09-26T23:52:37.328Z,11.81
2018-09-26T23:55:05.976Z,11.80
2018-09-26T23:57:34.562Z,11.80
